Flight Track Log - Related Links

Times and Time Zones

All times are in EDT time to prevent confusion due to time zone crossing. See the PDT4201 flight status page for this flight to view local times or setup timezone preferences in your user account.

Time Position Orientation Groundspeed Altitude Reporting Facility
EDT Latitude Longitude Course Direction KTS MPH feet Rate Location/Type
Tue 05:26:49 AM 35.0400 -77.1597 279° West 151 174 3,600  Level Washington Center
Tue 05:27:00 AM 34.9395 -77.1840 226° Southwest  Level FlightAware Approximate
Tue 05:27:50 AM 35.0350 -77.2156 264° West 162 186 4,600  Level Washington Center
Tue 05:28:00 AM 34.8982 -77.2355 225° Southwest  Level FlightAware Approximate
Tue 05:28:49 AM 35.0114 -77.2658 240° Southwest 162 186 5,500  Level Washington Center
Tue 05:29:00 AM 34.8561 -77.2861 225° Southwest  Level FlightAware Approximate
Tue 05:29:49 AM 34.9961 -77.3186 251° West 172 198 6,200  Level Washington Center
Tue 05:30:00 AM 34.8128 -77.3333 180° South  Level FlightAware Approximate
Tue 05:30:50 AM 34.9806 -77.3767 252° West 172 198 7,000  Level Washington Center
Tue 05:31:00 AM 34.8223 -77.4086 279° West  Level Estimated
Tue 05:31:49 AM 34.9650 -77.4347 252° West 178 205 7,700  Level Washington Center
Tue 05:32:00 AM 34.8317 -77.4839 279° West  Level Estimated
Tue 05:32:50 AM 34.9494 -77.4950 253° West 183 211 8,500  Level Washington Center
Tue 05:33:50 AM 34.9339 -77.5581 253° West 190 219 9,300 800 Climbing Washington Center
Tue 05:34:50 AM 34.9183 -77.6158 252° West 185 213 10,100 807 Climbing Washington Center
Tue 05:35:49 AM 34.8944 -77.6711 242° Southwest 185 213 10,900 744 Climbing Washington Center
Tue 05:36:51 AM 34.8767 -77.7289 249° West 185 213 11,600 800 Climbing Washington Center
Tue 05:37:49 AM 34.8589 -77.7892 250° West 190 219 12,500 763 Climbing Washington Center
Tue 05:38:49 AM 34.8411 -77.8467 249° West 190 219 13,100 634 Climbing Washington Center
Tue 05:39:52 AM 34.8233 -77.9044 249° West 190 219 13,800 700 Climbing Washington Center
Tue 05:40:49 AM 34.8033 -77.9697 250° West 190 219 14,500 655 Climbing Washington Center
Tue 05:41:51 AM 34.7856 -78.0297 250° West 190 219 15,100 639 Climbing Washington Center
Tue 05:42:51 AM 34.7675 -78.0900 250° West 190 219 15,800 458 Climbing Washington Center
Tue 05:43:49 AM 34.7433 -78.1525 245° Southwest 195 224 16,000 102 Climbing Washington Center
Tue 05:44:49 AM 34.7167 -78.2197 244° Southwest 203 234 16,000  Level Washington Center
Tue 05:45:51 AM 34.6942 -78.2922 249° West 216 249 16,000  Level Washington Center
Tue 05:46:49 AM 34.6717 -78.3672 250° West 232 267 16,000  Level Washington Center
Tue 05:47:50 AM 34.6492 -78.4322 247° West 226 260 16,000  Level Washington Center
Tue 05:48:50 AM 34.6289 -78.4972 249° West 231 266 16,000  Level Washington Center
Tue 05:49:33 AM 34.6086 -78.5489 245° Southwest 231 266 16,000  Level Jacksonville Center
Tue 05:50:33 AM 34.5842 -78.6258 249° West 236 272 16,000  Level Jacksonville Center
Tue 05:51:33 AM 34.5594 -78.6975 247° West 236 272 16,000  Level Jacksonville Center
Tue 05:52:33 AM 34.5367 -78.7667 248° West 236 272 16,000  Level Jacksonville Center
Tue 05:53:33 AM 34.5161 -78.8408 251° West 236 272 16,000  Level Jacksonville Center
Tue 05:54:33 AM 34.4897 -78.9250 249° West 236 272 16,000  Level Jacksonville Center
Tue 05:55:33 AM 34.4647 -78.9967 247° West 236 272 16,000  Level Jacksonville Center
Tue 05:56:33 AM 34.4375 -79.0658 245° Southwest 236 272 16,000  Level Jacksonville Center
Tue 05:57:33 AM 34.4086 -79.1378 244° Southwest 236 272 16,000 -50 Level Jacksonville Center
Tue 05:58:33 AM 34.3836 -79.2117 248° West 241 277 15,900 -450 Descending Jacksonville Center
Tue 05:59:33 AM 34.3567 -79.2883 247° West 241 277 15,100 -850 Descending Jacksonville Center
Tue 06:00:33 AM 34.3297 -79.3700 248° West 251 289 14,200 -800 Descending Jacksonville Center
Tue 06:01:33 AM 34.3047 -79.4439 248° West 257 296 13,500 -800 Descending Jacksonville Center
Tue 06:02:33 AM 34.2819 -79.5300 252° West 268 308 12,600 -900 Descending Jacksonville Center
Tue 06:03:33 AM 34.2944 -79.6125 280° West 259 298 11,700 -850 Descending Jacksonville Center
Tue 06:04:33 AM 34.3403 -79.6839 308° West 246 283 10,900 -750 Descending Jacksonville Center
Tue 06:05:33 AM 34.3836 -79.7550 306° West 255 293 10,200 -450 Descending Jacksonville Center
Tue 06:06:33 AM 34.4250 -79.8267 305° West 266 306 10,000 -100 Descending Jacksonville Center
Tue 06:07:33 AM 34.4539 -79.9011 295° West 256 295 10,000  Level Jacksonville Center
Tue 06:08:33 AM 34.4867 -79.9656 302° West 245 282 10,000  Level Jacksonville Center
Tue 06:09:33 AM 34.5217 -80.0375 301° West 245 282 10,000  Level Jacksonville Center
Tue 06:10:33 AM 34.5567 -80.1017 304° West 240 276 10,000  Level Jacksonville Center
Tue 06:12:18 AM 34.6219 -80.2272 302° West 238 274 10,000  Level Atlanta Center
Tue 06:13:19 AM 34.6575 -80.2939 303° West 239 275 10,000  Level Atlanta Center
Tue 06:14:14 AM 34.7050 -80.3447 319° Northwest 246 283 10,000  Level Atlanta Center
Tue 06:15:20 AM 34.7547 -80.4083 314° West 242 278 10,000 -361 Level Atlanta Center
Tue 06:16:27 AM 34.8114 -80.4819 313° West 255 293 9,200 -469 Descending Atlanta Center
Tue 06:17:28 AM 34.8650 -80.5378 319° Northwest 262 302 9,000 -94 Descending Atlanta Center
Tue 06:18:35 AM 34.9211 -80.6064 315° West 245 282 9,000  Level Atlanta Center
Tue 06:19:36 AM 34.9667 -80.6653 313° West 240 276 9,000  Level Atlanta Center
Tue 06:20:37 AM 35.0122 -80.7269 312° West 239 275 9,000  Level Atlanta Center
Tue 06:21:38 AM 35.0556 -80.7833 313° West 239 275 9,000  Level Atlanta Center
Tue 06:22:39 AM 35.0867 -80.8558 298° West 234 269 9,000  Level Atlanta Center
Tue 06:23:33 AM 35.1133 -80.9208 297° West 233 268 9,000  Level Atlanta Center
Tue 06:24:34 AM 35.1503 -80.9881 304° West 236 272 9,000 -246 Level Atlanta Center
Tue 06:25:35 AM 35.1936 -81.0525 309° West 248 285 8,500 -1,125 Descending Atlanta Center
Tue 06:26:42 AM 35.2694 -81.0778 345° North 252 290 6,600 -1,672 Descending Atlanta Center
Tue 06:27:37 AM 35.3300 -81.0781 360° North 242 278 5,100 -1,172 Descending Atlanta Center
Tue 06:28:50 AM 35.3617 -81.0108 60° Northeast 203 234 4,100 -822 Descending Atlanta Center

Login

Don't have an account? Register now (free) for customized features, flight alerts, and more!